Time;durP1;ratioP1;P1;durP2;ratioP2;P2;SDS_P1;SDS_P2;PMS_P1;PMS_P2;Temp;Humidity;BMP_temperature;BMP_pressure;BME280_temperature;BME280_humidity;BME280_pressure;Samples;Min_cycle;Max_cycle;Signal;HPM_P1;HPM_P2
2021/03/27 00:00:39;;;;;;;53.28;37.85;;;;;;;10.76;71.00;100264.98;2772023;85;21177;-62
2021/03/27 00:05:09;;;;;;;49.95;33.50;;;;;;;10.68;70.94;100256.31;2771832;85;21189;-61
2021/03/27 00:09:46;;;;;;;46.42;32.35;;;;;;;10.59;71.10;100255.72;2771939;85;21177;-62
2021/03/27 00:14:03;;;;;;;70.47;43.63;;;;;;;10.58;71.08;100254.03;2726150;87;21123;-61
2021/03/27 00:18:47;;;;;;;68.02;43.08;;;;;;;10.57;70.97;100251.02;2788799;85;21163;-62
2021/03/27 00:23:17;;;;;;;59.00;41.58;;;;;;;10.53;70.90;100240.28;2801282;85;21151;-62
2021/03/27 00:27:28;;;;;;;68.57;37.20;;;;;;;10.50;70.70;100235.22;2801521;84;21178;-62
2021/03/27 00:31:39;;;;;;;44.83;33.83;;;;;;;10.46;70.75;100220.49;2797799;85;21617;-61
2021/03/27 00:35:50;;;;;;;60.48;36.20;;;;;;;10.36;70.91;100218.55;2796099;85;21203;-61
2021/03/27 00:40:16;;;;;;;52.73;30.77;;;;;;;10.31;71.04;100221.22;2796148;85;21593;-61
2021/03/27 00:44:23;;;;;;;51.05;31.40;;;;;;;10.28;70.62;100215.69;2795518;85;21203;-61
2021/03/27 00:48:36;;;;;;;39.13;21.65;;;;;;;10.28;70.40;100210.37;2795789;85;21170;-61
2021/03/27 00:52:44;;;;;;;30.82;20.23;;;;;;;10.38;70.14;100211.78;2796351;83;21192;-61
2021/03/27 00:57:26;;;;;;;42.70;30.72;;;;;;;10.57;69.82;100217.77;2796326;85;21187;-61
2021/03/27 01:01:37;;;;;;;38.90;22.90;;;;;;;10.70;69.41;100206.48;2796017;85;21621;-63
2021/03/27 01:05:42;;;;;;;37.38;24.05;;;;;;;10.82;68.96;100204.59;2795667;85;21207;-61
2021/03/27 01:10:10;;;;;;;31.33;20.90;;;;;;;10.93;68.75;100201.02;2796034;84;21175;-61
2021/03/27 01:14:21;;;;;;;42.95;25.00;;;;;;;10.96;68.28;100196.77;2796163;85;21143;-62
2021/03/27 01:18:30;;;;;;;46.40;23.77;;;;;;;10.92;68.14;100188.69;2796744;85;22325;-62
2021/03/27 01:22:34;;;;;;;41.65;25.90;;;;;;;10.93;68.17;100182.39;2796273;85;21155;-62
2021/03/27 01:26:45;;;;;;;49.45;31.10;;;;;;;10.92;68.13;100174.06;2796070;85;21207;-61
2021/03/27 01:31:10;;;;;;;68.30;36.53;;;;;;;10.88;68.10;100171.31;2798598;85;21174;-61
2021/03/27 01:35:22;;;;;;;53.33;30.37;;;;;;;10.77;68.40;100168.70;2801575;84;21182;-61
2021/03/27 01:39:36;;;;;;;31.55;20.23;;;;;;;10.63;68.64;100162.75;2801456;84;21167;-61
2021/03/27 01:43:58;;;;;;;40.23;24.92;;;;;;;10.58;68.64;100162.27;2801686;85;21171;-61
2021/03/27 01:48:12;;;;;;;37.90;25.08;;;;;;;10.55;68.62;100157.22;2801577;84;21535;-61
2021/03/27 01:52:34;;;;;;;36.45;20.50;;;;;;;10.54;68.65;100147.55;2802072;85;21148;-60
2021/03/27 01:57:23;;;;;;;33.63;18.45;;;;;;;10.49;68.49;100141.78;2801638;85;21187;-61
2021/03/27 02:01:37;;;;;;;32.00;18.35;;;;;;;10.41;68.37;100141.92;2801694;84;21224;-63
2021/03/27 02:05:45;;;;;;;30.08;18.87;;;;;;;10.45;68.38;100143.02;2801525;85;21240;-60
2021/03/27 02:10:03;;;;;;;33.28;20.27;;;;;;;10.46;68.04;100128.75;2801326;85;21171;-62
2021/03/27 02:14:46;;;;;;;25.97;17.10;;;;;;;10.60;67.73;100132.90;2801520;84;21159;-61
2021/03/27 02:19:40;;;;;;;30.30;17.30;;;;;;;10.70;67.04;100130.66;2801514;84;21854;-61
2021/03/27 02:24:09;;;;;;;26.40;16.15;;;;;;;10.82;66.26;100123.44;2801598;85;21116;-62
2021/03/27 02:28:50;;;;;;;30.10;18.90;;;;;;;10.92;65.76;100116.84;2801318;84;21184;-61
2021/03/27 02:33:22;;;;;;;33.70;19.87;;;;;;;11.02;65.52;100110.73;2801551;84;21191;-61
2021/03/27 02:37:57;;;;;;;28.60;18.45;;;;;;;11.09;64.86;100111.87;2801549;85;21151;-62
2021/03/27 02:42:25;;;;;;;29.70;18.12;;;;;;;11.15;64.63;100108.67;2562991;92;21193;-62
2021/03/27 02:46:36;;;;;;;35.38;19.07;;;;;;;11.18;64.34;100112.90;2563177;92;21201;-62
2021/03/27 02:51:20;;;;;;;29.57;19.73;;;;;;;11.19;64.22;100104.76;2561048;92;21196;-60
2021/03/27 02:56:11;;;;;;;23.27;18.35;;;;;;;11.25;63.97;100106.91;2996851;77;22634;-60
2021/03/27 03:00:32;;;;;;;27.87;19.02;;;;;;;11.22;64.02;100109.84;2951579;80;21419;-61
2021/03/27 03:05:13;;;;;;;31.50;18.40;;;;;;;11.24;63.76;100106.55;2951304;80;21130;-61
2021/03/27 03:09:36;;;;;;;22.95;15.80;;;;;;;11.25;63.69;100092.73;2951690;80;21153;-63
2021/03/27 03:13:53;;;;;;;34.10;18.23;;;;;;;11.26;63.41;100090.42;2951513;79;21567;-62
2021/03/27 03:18:19;;;;;;;26.62;18.55;;;;;;;11.28;63.28;100088.47;2941502;80;21122;-62
2021/03/27 03:22:40;;;;;;;;;;;;;;;11.29;63.21;100079.02;2954467;80;21153;-61
2021/03/27 03:27:09;;;;;;;24.75;17.87;;;;;;;11.29;62.88;100092.34;2916508;80;20204;-61
2021/03/27 03:31:35;;;;;;;28.17;19.65;;;;;;;11.29;62.93;100085.69;2900547;82;21681;-61
2021/03/27 03:36:09;;;;;;;27.80;16.57;;;;;;;11.32;62.58;100087.72;2900540;81;21164;-62
2021/03/27 03:40:43;;;;;;;29.55;18.82;;;;;;;11.33;62.48;100073.42;2900282;82;21165;-62
2021/03/27 03:44:54;;;;;;;35.88;17.00;;;;;;;11.31;62.55;100082.04;2900420;82;21180;-61
2021/03/27 03:49:21;;;;;;;32.17;19.17;;;;;;;11.33;62.36;100078.75;2900018;82;21173;-62
2021/03/27 03:53:49;;;;;;;29.15;17.85;;;;;;;11.33;62.29;100076.94;2877595;81;21157;-61
2021/03/27 03:58:37;;;;;;;30.05;17.07;;;;;;;11.31;62.31;100078.05;2919795;81;21149;-61
2021/03/27 04:02:49;;;;;;;32.88;20.77;;;;;;;11.27;62.24;100070.33;2923428;81;21174;-62
2021/03/27 04:07:06;;;;;;;31.52;20.10;;;;;;;11.22;62.29;100061.92;2920719;81;21149;-64
2021/03/27 04:11:35;;;;;;;;;;;;;;;11.20;62.28;100063.02;2908177;81;21132;-61
2021/03/27 04:15:45;;;;;;;28.62;18.25;;;;;;;11.13;62.26;100054.25;2883315;80;20182;-62
2021/03/27 04:19:58;;;;;;;28.35;18.02;;;;;;;11.10;62.53;100053.20;2957739;80;21181;-61
2021/03/27 04:24:12;;;;;;;27.65;18.25;;;;;;;11.04;62.73;100060.87;2956885;80;21130;-62
2021/03/27 04:28:41;;;;;;;29.32;18.92;;;;;;;10.95;62.89;100055.36;2933609;79;21113;-62
2021/03/27 04:33:32;;;;;;;26.93;18.48;;;;;;;10.89;63.16;100059.04;2957371;80;21121;-62
2021/03/27 04:38:20;;;;;;;26.87;16.52;;;;;;;10.82;63.29;100046.78;2957487;80;21930;-63
2021/03/27 04:42:40;;;;;;;28.77;18.40;;;;;;;10.79;63.56;100049.20;2957542;80;21160;-62
2021/03/27 04:47:13;;;;;;;24.92;15.48;;;;;;;10.67;64.40;100048.45;2957809;80;21114;-62
2021/03/27 04:51:52;;;;;;;35.75;18.70;;;;;;;10.55;64.67;100042.38;2958445;80;21559;-62
2021/03/27 04:56:06;;;;;;;30.60;19.07;;;;;;;10.56;64.63;100045.87;2952268;80;21189;-62
2021/03/27 05:00:43;;;;;;;31.33;21.33;;;;;;;10.59;64.59;100046.92;2952409;80;21141;-62
2021/03/27 05:05:28;;;;;;;35.30;20.85;;;;;;;10.63;64.59;100051.03;2951226;80;21161;-63
2021/03/27 05:10:28;;;;;;;31.97;18.45;;;;;;;10.77;64.35;100044.52;2952120;80;21885;-62
2021/03/27 05:15:10;;;;;;;27.67;18.25;;;;;;;10.93;63.97;100047.17;2952111;80;21130;-63
2021/03/27 05:19:18;;;;;;;30.45;18.37;;;;;;;11.03;63.37;100045.38;2952173;80;21152;-62
2021/03/27 05:24:03;;;;;;;31.93;18.05;;;;;;;11.09;63.41;100041.34;2952182;80;21697;-62
2021/03/27 05:28:48;;;;;;;25.10;17.40;;;;;;;11.10;63.21;100039.03;2952187;79;21109;-63
2021/03/27 05:33:13;;;;;;;28.87;17.17;;;;;;;11.12;63.13;100040.59;2952282;80;21145;-63
2021/03/27 05:37:39;;;;;;;28.05;17.90;;;;;;;11.25;62.69;100043.00;2952230;80;21796;-63
2021/03/27 05:42:00;;;;;;;32.67;20.43;;;;;;;11.41;62.60;100042.47;2952425;80;21609;-61
2021/03/27 05:46:45;;;;;;;31.37;18.82;;;;;;;11.62;62.34;100038.85;2952311;80;21161;-63
2021/03/27 05:51:17;;;;;;;32.13;18.62;;;;;;;11.92;61.93;100041.05;2951888;80;21110;-62
2021/03/27 05:56:06;;;;;;;27.65;16.73;;;;;;;12.51;61.63;100041.00;2952311;80;21137;-62
2021/03/27 06:00:37;;;;;;;23.10;15.75;;;;;;;13.16;59.73;100027.30;2737851;87;21176;-63
2021/03/27 06:05:18;;;;;;;33.85;19.92;;;;;;;13.66;57.95;100034.55;2737662;87;21191;-62
2021/03/27 06:09:49;;;;;;;30.80;17.65;;;;;;;13.84;57.54;100023.36;2737608;87;21211;-62
2021/03/27 06:14:31;;;;;;;29.20;17.45;;;;;;;13.80;57.19;100017.13;2737595;87;21216;-62
2021/03/27 06:19:08;;;;;;;33.85;19.57;;;;;;;13.71;57.50;100023.75;2737649;87;21211;-62
2021/03/27 06:24:00;;;;;;;26.30;17.23;;;;;;;13.77;58.30;100008.09;2737587;86;21191;-63
2021/03/27 06:28:17;;;;;;;23.85;18.10;;;;;;;13.83;57.58;100004.30;2603184;91;21212;-63
2021/03/27 06:32:46;;;;;;;36.88;20.40;;;;;;;13.82;57.22;100007.12;2602198;91;21217;-63
2021/03/27 06:37:07;;;;;;;27.67;19.90;;;;;;;13.76;57.36;100004.59;2601662;91;21185;-63
2021/03/27 06:41:48;;;;;;;31.90;19.55;;;;;;;13.74;57.96;100001.20;2596824;91;21208;-63
2021/03/27 06:45:59;;;;;;;29.10;18.92;;;;;;;13.83;58.36;100002.97;2602074;91;21694;-62
2021/03/27 06:50:12;;;;;;;24.52;17.32;;;;;;;13.94;59.28;99999.69;2602333;91;21237;-62
2021/03/27 06:55:05;;;;;;;30.40;18.20;;;;;;;14.10;59.77;100000.34;2561251;91;21188;-63
2021/03/27 06:59:20;;;;;;;29.23;18.15;;;;;;;14.33;59.91;99999.82;2602589;91;21208;-63
2021/03/27 07:04:03;;;;;;;31.48;17.82;;;;;;;14.57;59.11;100008.50;2602459;91;21513;-61
2021/03/27 07:08:28;;;;;;;28.00;17.87;;;;;;;14.68;58.73;100016.24;2602530;91;21219;-63
2021/03/27 07:13:02;;;;;;;29.02;17.25;;;;;;;14.73;58.52;100009.59;2602747;91;21240;-62
2021/03/27 07:17:18;;;;;;;28.23;17.60;;;;;;;14.68;58.49;100003.37;2602455;91;21197;-63
2021/03/27 07:22:11;;;;;;;30.75;18.23;;;;;;;14.58;58.24;100006.16;2548665;93;21253;-62
2021/03/27 07:26:42;;;;;;;27.15;17.65;;;;;;;14.62;58.74;100014.70;2542094;92;21180;-61
2021/03/27 07:31:27;;;;;;;27.05;17.27;;;;;;;14.71;58.68;100023.98;2597036;91;21180;-62
2021/03/27 07:36:05;;;;;;;38.10;18.37;;;;;;;14.86;57.79;100019.38;2555178;93;21249;-62
2021/03/27 07:40:36;;;;;;;31.97;18.73;;;;;;;15.05;55.73;100009.41;2597110;91;22324;-63
2021/03/27 07:45:07;;;;;;;28.75;17.62;;;;;;;15.18;55.05;100019.66;2555405;93;21177;-63
2021/03/27 07:49:30;;;;;;;25.45;17.40;;;;;;;15.28;55.38;100035.94;2597163;91;21192;-63
2021/03/27 07:54:28;;;;;;;34.23;16.45;;;;;;;15.32;55.74;100035.60;2549290;93;21583;-62
2021/03/27 07:59:10;;;;;;;29.65;16.40;;;;;;;15.30;55.22;100038.47;2597301;91;21225;-62
2021/03/27 08:03:42;;;;;;;29.75;16.95;;;;;;;15.35;55.24;100042.00;2577386;91;21213;-62
2021/03/27 08:08:23;;;;;;;23.02;16.40;;;;;;;15.41;55.72;100042.68;2638361;90;21679;-63
2021/03/27 08:13:22;;;;;;;26.85;16.97;;;;;;;15.41;54.88;100052.88;2611253;90;21630;-63
2021/03/27 08:18:09;;;;;;;24.98;16.45;;;;;;;15.40;55.83;100055.74;2597010;91;21598;-62
2021/03/27 08:22:43;;;;;;;22.13;15.40;;;;;;;15.48;57.49;100066.99;2615088;90;21209;-63
2021/03/27 08:27:17;;;;;;;26.37;17.55;;;;;;;15.60;58.27;100075.56;2555635;91;21201;-63
2021/03/27 08:31:49;;;;;;;29.12;18.92;;;;;;;15.78;57.80;100076.77;2557565;93;21168;-63
2021/03/27 08:36:17;;;;;;;30.77;16.07;;;;;;;16.06;57.50;100086.72;2555654;93;21212;-63
2021/03/27 08:40:48;;;;;;;23.57;13.93;;;;;;;16.49;57.15;100091.06;2597906;91;21231;-63
2021/03/27 08:45:02;;;;;;;20.90;15.88;;;;;;;16.84;55.06;100084.48;2556201;93;21749;-62
2021/03/27 08:49:57;;;;;;;26.23;16.07;;;;;;;16.99;53.47;100091.34;2597429;91;21742;-62
2021/03/27 08:54:14;;;;;;;21.20;15.03;;;;;;;16.96;54.63;100090.31;2556186;93;21686;-62
2021/03/27 08:58:40;;;;;;;24.80;15.20;;;;;;;16.94;56.02;100096.38;2598139;90;21202;-61
2021/03/27 09:03:29;;;;;;;22.95;15.25;;;;;;;16.89;55.08;100098.71;2557715;93;21539;-63
2021/03/27 09:08:22;;;;;;;21.07;16.40;;;;;;;17.01;56.60;100102.42;3056255;76;22743;-61
2021/03/27 09:12:52;;;;;;;24.90;17.37;;;;;;;17.03;56.19;100105.77;3008550;79;21106;-61
2021/03/27 09:17:36;;;;;;;18.30;14.80;;;;;;;17.10;57.06;100120.21;3013598;77;21135;-62
2021/03/27 09:22:34;;;;;;;19.27;14.98;;;;;;;17.28;56.08;100130.72;3014859;79;21120;-60
2021/03/27 09:26:51;;;;;;;22.85;14.10;;;;;;;17.46;56.03;100125.09;3010775;77;21618;-62
2021/03/27 09:31:02;;;;;;;22.02;15.48;;;;;;;17.77;56.31;100130.99;2956939;79;21101;-61
2021/03/27 09:35:52;;;;;;;19.42;14.10;;;;;;;18.07;55.46;100128.47;3096595;76;22423;-61
2021/03/27 09:40:30;;;;;;;22.48;14.15;;;;;;;18.20;55.28;100135.97;3024029;78;21061;-62
2021/03/27 09:45:15;;;;;;;13.50;12.07;;;;;;;18.34;56.54;100137.53;3024058;78;21109;-61
2021/03/27 09:50:14;;;;;;;9.20;7.30;;;;;;;18.40;56.65;100140.34;3024375;78;21124;-61
2021/03/27 09:54:48;;;;;;;9.50;7.65;;;;;;;18.46;53.92;100154.09;3023968;78;21587;-62
2021/03/27 09:59:47;;;;;;;10.15;7.70;;;;;;;18.29;53.40;100173.09;3068988;77;22790;-62
2021/03/27 10:04:15;;;;;;;13.58;7.72;;;;;;;17.83;53.10;100177.88;2844998;83;21119;-61
2021/03/27 10:08:29;;;;;;;12.68;7.60;;;;;;;17.07;56.02;100221.30;3017240;78;21133;-63
2021/03/27 10:12:54;;;;;;;10.48;8.48;;;;;;;16.29;58.47;100236.34;3021935;78;21159;-61
2021/03/27 10:17:15;;;;;;;10.80;9.40;;;;;;;15.53;61.06;100234.39;2933122;81;21201;-62
2021/03/27 10:21:35;;;;;;;10.95;8.35;;;;;;;14.96;63.90;100290.61;3027556;78;21168;-63
2021/03/27 10:25:47;;;;;;;10.13;8.93;;;;;;;14.36;66.28;100273.28;2932427;79;21154;-61
2021/03/27 10:30:37;;;;;;;11.38;8.20;;;;;;;13.92;68.37;100290.46;2930913;80;21137;-62
2021/03/27 10:34:45;;;;;;;11.63;8.93;;;;;;;13.60;69.83;100297.90;2881293;81;21185;-60
2021/03/27 10:39:27;;;;;;;9.90;8.83;;;;;;;13.37;70.58;100304.06;2961661;80;21148;-61
2021/03/27 10:44:04;;;;;;;9.70;8.73;;;;;;;13.29;71.79;100313.62;2911493;81;21161;-61
2021/03/27 10:48:18;;;;;;;12.82;10.18;;;;;;;13.27;71.17;100322.27;2911805;81;21165;-61
2021/03/27 10:53:05;;;;;;;10.25;8.95;;;;;;;13.39;72.39;100323.46;2928280;80;21149;-61
2021/03/27 10:57:52;;;;;;;14.70;9.60;;;;;;;13.49;71.68;100322.96;2887332;81;21186;-61
2021/03/27 11:02:42;;;;;;;10.98;9.40;;;;;;;13.67;71.01;100319.55;2920323;81;21497;-61
2021/03/27 11:07:36;;;;;;;13.28;10.58;;;;;;;13.81;70.30;100332.94;2889538;81;21166;-61
2021/03/27 11:12:35;;;;;;;11.40;8.43;;;;;;;13.97;71.35;100335.01;2866382;83;21565;-61
2021/03/27 11:16:58;;;;;;;10.55;8.15;;;;;;;14.24;70.25;100317.28;2919400;81;21152;-60
2021/03/27 11:21:39;;;;;;;10.03;8.00;;;;;;;14.46;69.30;100336.59;2868686;82;21176;-60
2021/03/27 11:26:26;;;;;;;10.63;7.85;;;;;;;14.63;68.84;100328.23;2864316;82;21157;-61
2021/03/27 11:30:57;;;;;;;9.38;7.55;;;;;;;14.78;67.79;100324.06;2919625;81;21152;-62
2021/03/27 11:35:14;;;;;;;9.80;6.80;;;;;;;15.04;67.43;100348.77;2918076;81;21112;-63
2021/03/27 11:39:52;;;;;;;11.85;8.40;;;;;;;15.19;66.50;100357.09;2864386;83;21148;-62
2021/03/27 11:44:40;;;;;;;11.53;7.70;;;;;;;15.19;65.64;100362.45;2874928;82;21168;-63
2021/03/27 11:48:52;;;;;;;9.73;7.58;;;;;;;15.10;65.44;100368.72;2919511;81;21128;-63
2021/03/27 11:53:43;;;;;;;8.33;6.83;;;;;;;14.95;64.55;100355.88;2920098;81;21092;-63
2021/03/27 12:03:35;;;;;;;2.85;2.22;;;;;;;12.83;68.34;100444.16;2879960;82;21629;-61
2021/03/27 12:07:49;;;;;;;7.37;2.62;;;;;;;11.71;72.96;100476.37;2880218;82;21211;-62
2021/03/27 12:12:33;;;;;;;2.37;1.42;;;;;;;11.34;74.46;100482.55;2879999;82;21154;-63
2021/03/27 12:16:58;;;;;;;1.12;1.05;;;;;;;11.06;73.07;100498.95;2930181;81;21160;-61
2021/03/27 12:21:25;;;;;;;1.98;1.30;;;;;;;11.09;73.84;100517.84;2879899;81;21173;-60
2021/03/27 12:25:56;;;;;;;1.15;1.12;;;;;;;11.16;73.88;100528.84;2970623;80;21117;-62
2021/03/27 12:30:27;;;;;;;2.55;1.77;;;;;;;11.27;73.61;100532.33;2849062;82;21182;-61
2021/03/27 12:34:37;;;;;;;2.58;1.55;;;;;;;11.47;74.46;100547.17;2971180;80;21137;-63
2021/03/27 12:39:17;;;;;;;6.30;2.90;;;;;;;11.49;73.50;100517.73;2879843;82;21192;-62
2021/03/27 12:43:25;;;;;;;2.80;2.35;;;;;;;11.44;73.39;100548.77;2970774;80;21136;-63
2021/03/27 12:47:42;;;;;;;4.03;2.33;;;;;;;11.12;75.05;100583.68;2851104;82;21473;-63
2021/03/27 12:51:56;;;;;;;3.47;1.75;;;;;;;10.91;76.64;100593.36;2944769;80;21185;-62
2021/03/27 12:56:10;;;;;;;3.70;2.08;;;;;;;10.55;79.04;100592.09;2862158;81;21225;-63
2021/03/27 13:00:50;;;;;;;2.20;2.00;;;;;;;10.49;79.05;100600.55;2803144;84;21185;-63
2021/03/27 13:05:19;;;;;;;5.67;1.65;;;;;;;10.62;78.80;100602.64;2862921;82;21353;-63
2021/03/27 13:10:01;;;;;;;4.17;3.15;;;;;;;10.84;77.87;100585.01;2862085;83;21215;-62
2021/03/27 13:14:41;;;;;;;4.20;3.05;;;;;;;11.07;76.69;100582.34;2743177;85;21198;-64
2021/03/27 13:19:40;;;;;;;1.65;1.55;;;;;;;11.25;75.99;100583.53;2735176;87;21184;-62
2021/03/27 13:24:22;;;;;;;7.58;2.60;;;;;;;11.40;75.33;100587.28;2787103;83;21597;-63
2021/03/27 13:28:34;;;;;;;2.52;2.10;;;;;;;11.45;74.90;100594.41;2774303;83;21177;-62
2021/03/27 13:32:39;;;;;;;5.85;1.75;;;;;;;11.41;75.22;100598.30;2778775;83;21584;-62
2021/03/27 13:37:28;;;;;;;4.03;1.92;;;;;;;11.41;74.87;100596.45;2802604;84;21181;-63
2021/03/27 13:41:39;;;;;;;3.17;1.57;;;;;;;11.48;74.57;100614.13;2790625;85;21219;-63
2021/03/27 13:46:10;;;;;;;3.17;2.42;;;;;;;11.89;78.99;100596.22;2794266;82;21446;-62
2021/03/27 13:50:26;;;;;;;6.60;2.37;;;;;;;12.42;75.65;100590.91;2817894;83;21162;-62
2021/03/27 13:55:18;;;;;;;2.85;2.65;;;;;;;12.81;72.52;100591.61;2821857;83;21191;-62
2021/03/27 13:59:42;;;;;;;4.35;3.15;;;;;;;12.91;71.19;100605.00;2830954;83;21217;-62
2021/03/27 14:04:21;;;;;;;4.08;2.15;;;;;;;13.03;71.47;100615.11;2838634;83;21166;-63
2021/03/27 14:08:42;;;;;;;3.90;2.10;;;;;;;13.01;70.44;100614.39;2838973;83;21992;-63
2021/03/27 14:13:28;;;;;;;3.40;3.10;;;;;;;13.06;69.85;100605.98;2834694;83;21158;-63
2021/03/27 14:17:45;;;;;;;2.85;2.55;;;;;;;13.03;68.33;100603.59;2820501;84;21158;-62
2021/03/27 14:22:28;;;;;;;4.15;2.58;;;;;;;12.99;69.39;100607.88;2798844;84;21183;-62
2021/03/27 14:26:58;;;;;;;3.10;2.75;;;;;;;13.03;68.08;100600.92;2783994;85;21163;-63
2021/03/27 14:31:08;;;;;;;4.15;3.27;;;;;;;13.15;67.62;100594.48;2787165;85;21201;-63
2021/03/27 14:35:36;;;;;;;5.28;3.35;;;;;;;13.21;68.93;100592.63;2784196;85;21143;-63
2021/03/27 14:39:50;;;;;;;4.87;3.70;;;;;;;13.40;69.00;100595.83;2787991;85;21597;-63
2021/03/27 14:44:15;;;;;;;4.05;3.65;;;;;;;13.61;67.15;100590.09;2787709;84;21179;-62
2021/03/27 14:48:23;;;;;;;3.67;3.30;;;;;;;13.87;66.25;100582.86;2765547;85;21151;-62
2021/03/27 14:52:46;;;;;;;3.70;2.95;;;;;;;14.04;64.53;100582.16;2788414;85;21141;-62
2021/03/27 14:57:10;;;;;;;6.87;3.50;;;;;;;14.12;64.81;100588.14;2781759;85;21145;-62
2021/03/27 15:01:49;;;;;;;5.53;4.00;;;;;;;14.23;64.53;100586.63;2969903;77;27982;-61
2021/03/27 15:06:15;;;;;;;3.35;2.87;;;;;;;14.30;61.77;100584.23;2938409;80;21137;-62
2021/03/27 15:11:00;;;;;;;4.45;3.55;;;;;;;14.30;62.34;100586.09;2900453;82;21591;-62
2021/03/27 15:15:21;;;;;;;4.03;2.98;;;;;;;14.28;63.53;100586.22;2871359;82;21142;-62
2021/03/27 15:19:46;;;;;;;3.70;2.98;;;;;;;14.22;61.38;100589.47;2900355;82;21646;-62
2021/03/27 15:24:07;;;;;;;3.50;3.20;;;;;;;14.05;61.97;100597.22;2921437;79;21567;-64
2021/03/27 15:28:37;;;;;;;3.72;2.65;;;;;;;13.90;63.27;100595.94;2930888;80;21154;-63
2021/03/27 15:32:52;;;;;;;4.62;3.35;;;;;;;13.82;63.93;100601.98;2900024;82;21165;-62
2021/03/27 15:42:17;;;;;;;2.27;1.45;;;;;;;13.67;61.04;100593.53;2751646;86;21660;-61
2021/03/27 15:46:49;;;;;;;4.53;1.95;;;;;;;13.25;58.97;100595.38;2661188;89;21570;-63
2021/03/27 15:51:41;;;;;;;1.90;1.70;;;;;;;12.87;58.02;100604.92;2676595;88;21205;-62
2021/03/27 15:56:12;;;;;;;1.55;1.07;;;;;;;12.60;60.03;100622.34;2676275;88;21202;-61
2021/03/27 16:00:42;;;;;;;1.05;0.70;;;;;;;12.39;55.10;100619.19;2676392;88;21165;-63
2021/03/27 16:05:28;;;;;;;1.40;0.70;;;;;;;12.27;55.81;100611.70;2676494;88;22053;-62
2021/03/27 16:09:35;;;;;;;2.25;0.85;;;;;;;12.12;54.66;100611.68;2675937;88;21197;-62
2021/03/27 16:19:02;;;;;;;3.70;1.80;;;;;;;11.85;57.51;100660.92;2724314;85;21508;-63
2021/03/27 16:23:32;;;;;;;2.12;1.60;;;;;;;11.17;58.81;100727.56;2746241;85;21220;-62
2021/03/27 16:28:02;;;;;;;3.15;1.62;;;;;;;10.42;65.24;100743.31;2734139;86;21651;-62
2021/03/27 16:32:16;;;;;;;1.95;1.62;;;;;;;9.71;69.24;100788.23;2800679;85;21153;-61
2021/03/27 16:36:53;;;;;;;5.10;0.90;;;;;;;9.15;72.67;100823.89;2799549;85;21190;-62
2021/03/27 16:41:18;;;;;;;2.35;1.25;;;;;;;8.90;72.86;100830.84;2801225;84;21201;-63
2021/03/27 16:45:36;;;;;;;2.98;1.90;;;;;;;8.78;73.41;100865.67;2788378;84;21185;-62
2021/03/27 16:49:43;;;;;;;2.72;1.00;;;;;;;8.87;72.23;100849.63;2792635;85;21182;-63
2021/03/27 16:54:35;;;;;;;2.80;1.37;;;;;;;9.02;71.96;100878.73;2798544;84;21671;-63
2021/03/27 16:59:07;;;;;;;1.17;1.02;;;;;;;9.02;71.15;100885.38;2789331;85;21222;-62
2021/03/27 17:03:30;;;;;;;8.40;1.32;;;;;;;9.08;69.95;100867.73;2797241;85;21149;-62
2021/03/27 17:08:18;;;;;;;3.17;1.62;;;;;;;9.07;70.00;100876.65;2789708;83;21258;-63
2021/03/27 17:12:37;;;;;;;2.42;0.53;;;;;;;8.95;70.11;100883.12;2783358;85;21667;-63
2021/03/27 17:17:11;;;;;;;1.98;0.85;;;;;;;8.83;70.40;100875.96;2767992;83;21150;-61
2021/03/27 17:21:55;;;;;;;3.40;1.22;;;;;;;8.77;70.52;100878.56;2758675;86;21154;-62
2021/03/27 17:26:29;;;;;;;4.37;1.98;;;;;;;8.69;70.90;100876.40;2758731;85;21174;-61
2021/03/27 17:30:43;;;;;;;8.35;2.08;;;;;;;8.59;71.45;100881.07;2758934;85;21131;-62
2021/03/27 17:35:13;;;;;;;4.05;2.30;;;;;;;8.48;72.04;100887.03;2758577;85;21198;-62
2021/03/27 17:39:30;;;;;;;2.40;1.62;;;;;;;8.38;72.16;100904.83;2996224;77;22475;-60
2021/03/27 17:43:56;;;;;;;2.72;1.75;;;;;;;8.24;72.55;100903.05;2950614;80;21134;-61
2021/03/27 17:48:24;;;;;;;2.20;1.62;;;;;;;8.17;72.67;100907.03;2950612;80;21118;-61
2021/03/27 17:52:37;;;;;;;3.35;2.37;;;;;;;8.11;72.74;100912.23;2950747;80;21154;-62
2021/03/27 17:56:44;;;;;;;2.08;1.98;;;;;;;8.06;72.83;100918.30;2950290;80;21710;-65
2021/03/27 18:00:51;;;;;;;;;;;;;;;8.04;72.78;100912.21;2953321;80;21117;-60
2021/03/27 18:05:05;;;;;;;3.45;2.27;;;;;;;7.98;72.70;100924.06;2950417;80;20159;-61
2021/03/27 18:09:12;;;;;;;7.00;3.27;;;;;;;7.89;72.58;100921.95;2920765;81;21150;-61
2021/03/27 18:13:39;;;;;;;6.72;3.35;;;;;;;7.76;72.95;100919.66;2921007;80;21132;-61
2021/03/27 18:17:53;;;;;;;6.87;2.62;;;;;;;7.69;72.81;100925.33;2898637;82;21126;-61
2021/03/27 18:22:35;;;;;;;5.05;2.85;;;;;;;7.63;72.39;100923.51;2898662;80;21571;-61
2021/03/27 18:27:06;;;;;;;7.75;3.72;;;;;;;7.59;72.31;100937.42;2898833;81;21556;-62
2021/03/27 18:31:49;;;;;;;4.70;2.65;;;;;;;7.57;72.15;100943.28;2849819;83;21148;-61
2021/03/27 18:36:06;;;;;;;4.62;2.95;;;;;;;7.53;71.85;100939.09;2862050;81;21157;-61
2021/03/27 18:40:47;;;;;;;7.10;2.65;;;;;;;7.40;71.90;100941.14;2908748;81;21133;-60
2021/03/27 18:44:56;;;;;;;4.92;3.35;;;;;;;7.26;72.17;100952.98;2908791;81;21172;-59
2021/03/27 18:49:07;;;;;;;4.22;2.55;;;;;;;7.21;72.62;100961.67;2908712;81;21132;-59
2021/03/27 18:53:23;;;;;;;7.65;2.90;;;;;;;7.08;72.57;100969.45;2908112;81;21574;-59
2021/03/27 18:57:48;;;;;;;5.35;3.15;;;;;;;6.97;72.79;100973.54;2908254;81;21157;-59
2021/03/27 19:02:06;;;;;;;6.17;3.33;;;;;;;6.93;73.24;100979.95;2907946;81;21590;-62
2021/03/27 19:06:12;;;;;;;7.80;4.08;;;;;;;6.90;73.48;100970.87;2906722;81;21125;-60
2021/03/27 19:10:29;;;;;;;9.63;5.85;;;;;;;6.90;73.77;100956.77;2908118;81;21607;-60
2021/03/27 19:14:38;;;;;;;7.08;5.10;;;;;;;6.90;73.76;100966.90;2871700;81;21439;-59
2021/03/27 19:18:46;;;;;;;11.57;6.58;;;;;;;6.92;74.11;100966.80;2858092;82;21242;-62
2021/03/27 19:23:03;;;;;;;6.30;4.67;;;;;;;6.99;74.08;100968.17;2784878;84;21664;-61
2021/03/27 19:27:11;;;;;;;5.65;3.75;;;;;;;7.05;72.97;100969.60;2780611;84;21643;-60
2021/03/27 19:36:30;;;;;;;4.58;3.25;;;;;;;7.20;70.91;100983.78;2771663;85;21650;-60
2021/03/27 19:40:47;;;;;;;4.87;3.25;;;;;;;7.26;70.26;100980.30;2782992;85;21186;-60
2021/03/27 19:45:15;;;;;;;6.58;3.58;;;;;;;7.28;69.87;100985.05;2763135;85;21619;-62
2021/03/27 19:49:28;;;;;;;4.50;2.90;;;;;;;7.22;70.00;100997.29;2782246;84;21110;-62
2021/03/27 19:53:59;;;;;;;7.12;2.77;;;;;;;7.09;70.25;100996.30;2783214;85;21124;-61
2021/03/27 19:58:13;;;;;;;6.75;3.67;;;;;;;7.03;70.46;101003.23;2783741;85;21209;-59
2021/03/27 20:02:27;;;;;;;4.42;3.00;;;;;;;6.96;70.48;101011.52;2783169;85;21187;-61
2021/03/27 20:06:43;;;;;;;6.12;3.95;;;;;;;6.90;71.09;101010.53;2779741;85;21191;-60
2021/03/27 20:10:50;;;;;;;3.95;2.58;;;;;;;6.85;71.04;101016.52;2771977;85;21566;-60
2021/03/27 20:15:30;;;;;;;6.90;2.95;;;;;;;6.82;70.86;101022.85;2782629;84;21131;-60
2021/03/27 20:19:38;;;;;;;3.60;3.15;;;;;;;6.76;71.06;101016.55;2757907;85;21597;-62
2021/03/27 20:24:19;;;;;;;8.53;3.02;;;;;;;6.71;70.59;101047.23;2781580;85;21608;-62
2021/03/27 20:29:01;;;;;;;4.33;2.08;;;;;;;6.75;70.33;101051.87;2781454;84;21146;-61
2021/03/27 20:33:36;;;;;;;4.92;3.05;;;;;;;6.73;70.10;101054.23;2779928;85;21154;-62
2021/03/27 20:38:05;;;;;;;;;;;;;;;6.76;69.96;101061.51;2779675;84;21237;-62
2021/03/27 20:42:30;;;;;;;3.90;2.50;;;;;;;6.81;69.87;101066.56;2775338;85;20179;-62
2021/03/27 20:46:47;;;;;;;3.65;3.27;;;;;;;6.80;70.11;101074.11;2772815;85;21181;-61
2021/03/27 20:51:25;;;;;;;4.45;2.52;;;;;;;6.84;70.02;101082.26;2772605;85;21165;-63
2021/03/27 20:55:52;;;;;;;2.60;1.87;;;;;;;6.80;70.02;101071.47;2730273;87;21181;-60